Terminal Aerodrome Forecast
Issued by NWS Pueblo, CO

Home | Current Version | Previous Version | Text Only | Print | Product List | Glossary On
Versions: 1 2 3 4 5 6 7 8 9 10 11 12 13 14 15 16 17 18 19 20 21 22 23 24 25 26 27 28 29 30 31 32 33 34 35
000
FTUS45 KPUB 291120
TAFPUB
TAF
KPUB 291120Z 2912/3012 28006KT P6SM SKC
     FM292100 12008KT P6SM SCT090 SCT150
     FM300300 03007KT P6SM SCT130 SCT200=

USA.gov is the U.S. government's official web portal to all federal, state and local government web resources and services.